sensor_id;sensor_type;location;lat;lon;timestamp;P1;durP1;ratioP1;P2;durP2;ratioP2
21120;SDS011;12519;43.318;21.898;2023-06-24T00:03:14;14.0;;;13.0;;
21120;SDS011;12519;43.318;21.898;2023-06-24T00:07:50;14.0;;;13.0;;
21120;SDS011;12519;43.318;21.898;2023-06-24T00:12:26;14.0;;;13.0;;
21120;SDS011;12519;43.318;21.898;2023-06-24T00:17:04;15.0;;;14.0;;
21120;SDS011;12519;43.318;21.898;2023-06-24T00:21:41;15.0;;;14.0;;
21120;SDS011;12519;43.318;21.898;2023-06-24T00:26:17;14.0;;;13.0;;
21120;SDS011;12519;43.318;21.898;2023-06-24T00:30:54;14.0;;;13.0;;
21120;SDS011;12519;43.318;21.898;2023-06-24T00:35:31;12.0;;;12.0;;
21120;SDS011;12519;43.318;21.898;2023-06-24T00:40:10;12.0;;;12.0;;
21120;SDS011;12519;43.318;21.898;2023-06-24T00:44:49;14.0;;;12.0;;
21120;SDS011;12519;43.318;21.898;2023-06-24T00:49:27;14.0;;;12.0;;
21120;SDS011;12519;43.318;21.898;2023-06-24T00:54:04;16.0;;;12.0;;
21120;SDS011;12519;43.318;21.898;2023-06-24T00:58:41;16.0;;;12.0;;
21120;SDS011;12519;43.318;21.898;2023-06-24T01:03:19;14.0;;;12.0;;
21120;SDS011;12519;43.318;21.898;2023-06-24T01:07:58;14.0;;;12.0;;
21120;SDS011;12519;43.318;21.898;2023-06-24T01:12:40;14.0;;;12.0;;
21120;SDS011;12519;43.318;21.898;2023-06-24T01:17:34;13.0;;;12.0;;
21120;SDS011;12519;43.318;21.898;2023-06-24T01:23:29;16.0;;;14.0;;
21120;SDS011;12519;43.318;21.898;2023-06-24T01:29:36;16.0;;;14.0;;
21120;SDS011;12519;43.318;21.898;2023-06-24T01:35:05;19.0;;;16.0;;
21120;SDS011;12519;43.318;21.898;2023-06-24T01:40:10;19.0;;;16.0;;
21120;SDS011;12519;43.318;21.898;2023-06-24T01:44:59;17.0;;;14.0;;
21120;SDS011;12519;43.318;21.898;2023-06-24T01:49:44;17.0;;;14.0;;
21120;SDS011;12519;43.318;21.898;2023-06-24T01:54:30;15.0;;;13.0;;
21120;SDS011;12519;43.318;21.898;2023-06-24T01:59:11;15.0;;;13.0;;
21120;SDS011;12519;43.318;21.898;2023-06-24T02:04:00;18.0;;;14.0;;
21120;SDS011;12519;43.318;21.898;2023-06-24T02:08:52;18.0;;;14.0;;
21120;SDS011;12519;43.318;21.898;2023-06-24T02:13:38;20.0;;;15.0;;
21120;SDS011;12519;43.318;21.898;2023-06-24T02:18:22;20.0;;;15.0;;
21120;SDS011;12519;43.318;21.898;2023-06-24T02:23:03;20.0;;;15.0;;
21120;SDS011;12519;43.318;21.898;2023-06-24T02:27:43;20.0;;;15.0;;
21120;SDS011;12519;43.318;21.898;2023-06-24T02:32:22;20.0;;;15.0;;
21120;SDS011;12519;43.318;21.898;2023-06-24T02:36:59;21.0;;;15.0;;
21120;SDS011;12519;43.318;21.898;2023-06-24T02:41:36;21.0;;;15.0;;
21120;SDS011;12519;43.318;21.898;2023-06-24T02:46:17;20.0;;;14.0;;
21120;SDS011;12519;43.318;21.898;2023-06-24T02:50:58;20.0;;;14.0;;
21120;SDS011;12519;43.318;21.898;2023-06-24T02:55:35;19.0;;;14.0;;
21120;SDS011;12519;43.318;21.898;2023-06-24T03:00:16;19.0;;;14.0;;
21120;SDS011;12519;43.318;21.898;2023-06-24T03:04:53;22.0;;;14.0;;
21120;SDS011;12519;43.318;21.898;2023-06-24T03:09:34;22.0;;;14.0;;
21120;SDS011;12519;43.318;21.898;2023-06-24T03:14:12;25.0;;;15.0;;
21120;SDS011;12519;43.318;21.898;2023-06-24T03:18:48;25.0;;;15.0;;
21120;SDS011;12519;43.318;21.898;2023-06-24T03:23:24;24.0;;;14.0;;
21120;SDS011;12519;43.318;21.898;2023-06-24T03:28:02;24.0;;;14.0;;
21120;SDS011;12519;43.318;21.898;2023-06-24T03:32:38;24.0;;;14.0;;
21120;SDS011;12519;43.318;21.898;2023-06-24T03:37:14;23.0;;;14.0;;
21120;SDS011;12519;43.318;21.898;2023-06-24T03:41:50;23.0;;;14.0;;
21120;SDS011;12519;43.318;21.898;2023-06-24T03:46:26;25.0;;;14.0;;
21120;SDS011;12519;43.318;21.898;2023-06-24T03:51:03;25.0;;;14.0;;
21120;SDS011;12519;43.318;21.898;2023-06-24T03:55:39;27.0;;;14.0;;
21120;SDS011;12519;43.318;21.898;2023-06-24T04:00:16;27.0;;;14.0;;
21120;SDS011;12519;43.318;21.898;2023-06-24T04:04:53;23.0;;;13.0;;
21120;SDS011;12519;43.318;21.898;2023-06-24T04:09:33;23.0;;;13.0;;
21120;SDS011;12519;43.318;21.898;2023-06-24T04:14:10;19.0;;;12.0;;
21120;SDS011;12519;43.318;21.898;2023-06-24T04:18:46;19.0;;;12.0;;
21120;SDS011;12519;43.318;21.898;2023-06-24T04:23:23;19.0;;;14.0;;
21120;SDS011;12519;43.318;21.898;2023-06-24T04:27:59;19.0;;;14.0;;
21120;SDS011;12519;43.318;21.898;2023-06-24T04:32:35;19.0;;;14.0;;
21120;SDS011;12519;43.318;21.898;2023-06-24T04:37:11;19.0;;;17.0;;
21120;SDS011;12519;43.318;21.898;2023-06-24T04:41:48;19.0;;;17.0;;
21120;SDS011;12519;43.318;21.898;2023-06-24T04:46:24;20.0;;;18.0;;
21120;SDS011;12519;43.318;21.898;2023-06-24T04:51:00;20.0;;;18.0;;
21120;SDS011;12519;43.318;21.898;2023-06-24T04:55:36;20.0;;;18.0;;
21120;SDS011;12519;43.318;21.898;2023-06-24T05:00:13;20.0;;;18.0;;
21120;SDS011;12519;43.318;21.898;2023-06-24T05:04:53;21.0;;;18.0;;
21120;SDS011;12519;43.318;21.898;2023-06-24T05:09:29;21.0;;;18.0;;
21120;SDS011;12519;43.318;21.898;2023-06-24T05:14:05;22.0;;;18.0;;
21120;SDS011;12519;43.318;21.898;2023-06-24T05:18:43;22.0;;;18.0;;
21120;SDS011;12519;43.318;21.898;2023-06-24T05:23:20;22.0;;;18.0;;
21120;SDS011;12519;43.318;21.898;2023-06-24T05:27:56;20.0;;;18.0;;
21120;SDS011;12519;43.318;21.898;2023-06-24T05:32:33;20.0;;;18.0;;
21120;SDS011;12519;43.318;21.898;2023-06-24T05:37:10;19.0;;;18.0;;
21120;SDS011;12519;43.318;21.898;2023-06-24T05:41:46;19.0;;;18.0;;
21120;SDS011;12519;43.318;21.898;2023-06-24T05:46:22;20.0;;;18.0;;
21120;SDS011;12519;43.318;21.898;2023-06-24T05:50:58;20.0;;;18.0;;
21120;SDS011;12519;43.318;21.898;2023-06-24T05:55:35;22.0;;;18.0;;
21120;SDS011;12519;43.318;21.898;2023-06-24T06:00:13;22.0;;;18.0;;
21120;SDS011;12519;43.318;21.898;2023-06-24T06:04:50;24.0;;;19.0;;
21120;SDS011;12519;43.318;21.898;2023-06-24T06:09:26;24.0;;;19.0;;
21120;SDS011;12519;43.318;21.898;2023-06-24T06:14:02;27.0;;;20.0;;
21120;SDS011;12519;43.318;21.898;2023-06-24T06:18:38;27.0;;;20.0;;
21120;SDS011;12519;43.318;21.898;2023-06-24T06:23:15;27.0;;;20.0;;
21120;SDS011;12519;43.318;21.898;2023-06-24T06:27:52;26.0;;;20.0;;
21120;SDS011;12519;43.318;21.898;2023-06-24T06:32:28;26.0;;;20.0;;
21120;SDS011;12519;43.318;21.898;2023-06-24T06:37:06;24.0;;;20.0;;
21120;SDS011;12519;43.318;21.898;2023-06-24T06:41:42;24.0;;;20.0;;
21120;SDS011;12519;43.318;21.898;2023-06-24T06:46:20;28.0;;;20.0;;
21120;SDS011;12519;43.318;21.898;2023-06-24T06:50:56;28.0;;;20.0;;
21120;SDS011;12519;43.318;21.898;2023-06-24T06:55:33;31.0;;;21.0;;
21120;SDS011;12519;43.318;21.898;2023-06-24T07:00:11;31.0;;;21.0;;
21120;SDS011;12519;43.318;21.898;2023-06-24T07:04:48;28.0;;;20.0;;
21120;SDS011;12519;43.318;21.898;2023-06-24T07:09:25;28.0;;;20.0;;
21120;SDS011;12519;43.318;21.898;2023-06-24T07:14:01;24.0;;;20.0;;
21120;SDS011;12519;43.318;21.898;2023-06-24T07:18:37;24.0;;;20.0;;
21120;SDS011;12519;43.318;21.898;2023-06-24T07:23:14;24.0;;;20.0;;
21120;SDS011;12519;43.318;21.898;2023-06-24T07:27:50;23.0;;;18.0;;
21120;SDS011;12519;43.318;21.898;2023-06-24T07:32:26;23.0;;;18.0;;
21120;SDS011;12519;43.318;21.898;2023-06-24T07:37:03;22.0;;;17.0;;
21120;SDS011;12519;43.318;21.898;2023-06-24T07:41:39;22.0;;;17.0;;
21120;SDS011;12519;43.318;21.898;2023-06-24T07:46:16;24.0;;;19.0;;
21120;SDS011;12519;43.318;21.898;2023-06-24T07:50:53;24.0;;;19.0;;
21120;SDS011;12519;43.318;21.898;2023-06-24T07:55:29;27.0;;;21.0;;
21120;SDS011;12519;43.318;21.898;2023-06-24T08:00:08;27.0;;;21.0;;
21120;SDS011;12519;43.318;21.898;2023-06-24T08:04:47;29.0;;;23.0;;
21120;SDS011;12519;43.318;21.898;2023-06-24T08:09:24;29.0;;;23.0;;
21120;SDS011;12519;43.318;21.898;2023-06-24T08:14:00;31.0;;;25.0;;
21120;SDS011;12519;43.318;21.898;2023-06-24T08:18:37;31.0;;;25.0;;
21120;SDS011;12519;43.318;21.898;2023-06-24T08:23:14;31.0;;;25.0;;
21120;SDS011;12519;43.318;21.898;2023-06-24T08:27:50;36.0;;;25.0;;
21120;SDS011;12519;43.318;21.898;2023-06-24T08:32:27;36.0;;;25.0;;
21120;SDS011;12519;43.318;21.898;2023-06-24T08:37:03;40.0;;;25.0;;
21120;SDS011;12519;43.318;21.898;2023-06-24T08:41:40;40.0;;;25.0;;
21120;SDS011;12519;43.318;21.898;2023-06-24T08:46:25;36.0;;;24.0;;
21120;SDS011;12519;43.318;21.898;2023-06-24T08:51:07;36.0;;;24.0;;
21120;SDS011;12519;43.318;21.898;2023-06-24T08:55:46;33.0;;;24.0;;
21120;SDS011;12519;43.318;21.898;2023-06-24T09:00:30;33.0;;;24.0;;
21120;SDS011;12519;43.318;21.898;2023-06-24T09:05:08;32.0;;;24.0;;
21120;SDS011;12519;43.318;21.898;2023-06-24T09:09:45;32.0;;;24.0;;
21120;SDS011;12519;43.318;21.898;2023-06-24T09:14:23;30.0;;;24.0;;
21120;SDS011;12519;43.318;21.898;2023-06-24T09:19:05;30.0;;;24.0;;
21120;SDS011;12519;43.318;21.898;2023-06-24T09:23:43;30.0;;;24.0;;
21120;SDS011;12519;43.318;21.898;2023-06-24T09:28:20;30.0;;;24.0;;
21120;SDS011;12519;43.318;21.898;2023-06-24T09:32:56;30.0;;;24.0;;
21120;SDS011;12519;43.318;21.898;2023-06-24T09:37:33;31.0;;;24.0;;
21120;SDS011;12519;43.318;21.898;2023-06-24T09:42:09;31.0;;;24.0;;
21120;SDS011;12519;43.318;21.898;2023-06-24T09:46:47;34.0;;;24.0;;
21120;SDS011;12519;43.318;21.898;2023-06-24T09:51:25;34.0;;;24.0;;
21120;SDS011;12519;43.318;21.898;2023-06-24T09:56:07;37.0;;;24.0;;
21120;SDS011;12519;43.318;21.898;2023-06-24T10:00:46;37.0;;;24.0;;
21120;SDS011;12519;43.318;21.898;2023-06-24T10:05:25;34.0;;;26.0;;
21120;SDS011;12519;43.318;21.898;2023-06-24T10:10:03;34.0;;;26.0;;
21120;SDS011;12519;43.318;21.898;2023-06-24T10:14:43;31.0;;;27.0;;
21120;SDS011;12519;43.318;21.898;2023-06-24T10:19:20;31.0;;;27.0;;
21120;SDS011;12519;43.318;21.898;2023-06-24T10:23:57;31.0;;;27.0;;
21120;SDS011;12519;43.318;21.898;2023-06-24T10:29:10;32.0;;;26.0;;
21120;SDS011;12519;43.318;21.898;2023-06-24T10:33:53;32.0;;;26.0;;
21120;SDS011;12519;43.318;21.898;2023-06-24T10:38:29;32.0;;;26.0;;
21120;SDS011;12519;43.318;21.898;2023-06-24T10:43:28;32.0;;;26.0;;
21120;SDS011;12519;43.318;21.898;2023-06-24T10:48:10;32.0;;;26.0;;
21120;SDS011;12519;43.318;21.898;2023-06-24T10:52:50;32.0;;;26.0;;
21120;SDS011;12519;43.318;21.898;2023-06-24T10:57:29;32.0;;;25.0;;
21120;SDS011;12519;43.318;21.898;2023-06-24T11:02:09;32.0;;;25.0;;
21120;SDS011;12519;43.318;21.898;2023-06-24T11:06:58;30.0;;;24.0;;
21120;SDS011;12519;43.318;21.898;2023-06-24T11:11:37;30.0;;;24.0;;
21120;SDS011;12519;43.318;21.898;2023-06-24T11:16:14;29.0;;;24.0;;
21120;SDS011;12519;43.318;21.898;2023-06-24T11:20:56;29.0;;;24.0;;
21120;SDS011;12519;43.318;21.898;2023-06-24T11:25:41;28.0;;;22.0;;
21120;SDS011;12519;43.318;21.898;2023-06-24T11:30:19;28.0;;;22.0;;
21120;SDS011;12519;43.318;21.898;2023-06-24T11:34:56;27.0;;;20.0;;
21120;SDS011;12519;43.318;21.898;2023-06-24T11:39:32;27.0;;;20.0;;
21120;SDS011;12519;43.318;21.898;2023-06-24T11:44:09;27.0;;;20.0;;
21120;SDS011;12519;43.318;21.898;2023-06-24T11:48:46;29.0;;;22.0;;
21120;SDS011;12519;43.318;21.898;2023-06-24T11:53:29;29.0;;;22.0;;
21120;SDS011;12519;43.318;21.898;2023-06-24T11:58:19;31.0;;;23.0;;
21120;SDS011;12519;43.318;21.898;2023-06-24T12:02:58;31.0;;;23.0;;
21120;SDS011;12519;43.318;21.898;2023-06-24T12:07:38;32.0;;;24.0;;
21120;SDS011;12519;43.318;21.898;2023-06-24T12:12:14;32.0;;;24.0;;
21120;SDS011;12519;43.318;21.898;2023-06-24T12:16:50;33.0;;;24.0;;
21120;SDS011;12519;43.318;21.898;2023-06-24T12:21:26;33.0;;;24.0;;
21120;SDS011;12519;43.318;21.898;2023-06-24T12:26:03;30.0;;;24.0;;
21120;SDS011;12519;43.318;21.898;2023-06-24T12:30:39;30.0;;;24.0;;
21120;SDS011;12519;43.318;21.898;2023-06-24T12:35:15;28.0;;;23.0;;
21120;SDS011;12519;43.318;21.898;2023-06-24T12:39:52;28.0;;;23.0;;
21120;SDS011;12519;43.318;21.898;2023-06-24T12:44:28;28.0;;;24.0;;
21120;SDS011;12519;43.318;21.898;2023-06-24T12:49:04;28.0;;;24.0;;
21120;SDS011;12519;43.318;21.898;2023-06-24T12:53:40;28.0;;;24.0;;
21120;SDS011;12519;43.318;21.898;2023-06-24T12:58:23;28.0;;;24.0;;
21120;SDS011;12519;43.318;21.898;2023-06-24T13:03:00;28.0;;;24.0;;
21120;SDS011;12519;43.318;21.898;2023-06-24T13:07:37;34.0;;;25.0;;
21120;SDS011;12519;43.318;21.898;2023-06-24T13:12:13;34.0;;;25.0;;
21120;SDS011;12519;43.318;21.898;2023-06-24T13:16:50;40.0;;;26.0;;
21120;SDS011;12519;43.318;21.898;2023-06-24T13:21:27;40.0;;;26.0;;
21120;SDS011;12519;43.318;21.898;2023-06-24T13:26:04;38.0;;;29.0;;
21120;SDS011;12519;43.318;21.898;2023-06-24T13:30:42;38.0;;;29.0;;
21120;SDS011;12519;43.318;21.898;2023-06-24T13:35:19;37.0;;;32.0;;
21120;SDS011;12519;43.318;21.898;2023-06-24T13:39:56;37.0;;;32.0;;
21120;SDS011;12519;43.318;21.898;2023-06-24T13:44:33;42.0;;;34.0;;
21120;SDS011;12519;43.318;21.898;2023-06-24T13:49:11;42.0;;;34.0;;
21120;SDS011;12519;43.318;21.898;2023-06-24T13:53:52;42.0;;;34.0;;
21120;SDS011;12519;43.318;21.898;2023-06-24T13:58:31;46.0;;;37.0;;
21120;SDS011;12519;43.318;21.898;2023-06-24T14:03:08;46.0;;;37.0;;
21120;SDS011;12519;43.318;21.898;2023-06-24T14:07:44;44.0;;;36.0;;
21120;SDS011;12519;43.318;21.898;2023-06-24T14:12:20;44.0;;;36.0;;
21120;SDS011;12519;43.318;21.898;2023-06-24T14:16:57;43.0;;;35.0;;
21120;SDS011;12519;43.318;21.898;2023-06-24T14:21:34;43.0;;;35.0;;
21120;SDS011;12519;43.318;21.898;2023-06-24T14:26:11;44.0;;;34.0;;
21120;SDS011;12519;43.318;21.898;2023-06-24T14:30:48;44.0;;;34.0;;
21120;SDS011;12519;43.318;21.898;2023-06-24T14:35:25;46.0;;;34.0;;
21120;SDS011;12519;43.318;21.898;2023-06-24T14:40:04;46.0;;;34.0;;
21120;SDS011;12519;43.318;21.898;2023-06-24T14:44:44;52.0;;;36.0;;
21120;SDS011;12519;43.318;21.898;2023-06-24T14:49:20;52.0;;;36.0;;
21120;SDS011;12519;43.318;21.898;2023-06-24T14:53:57;52.0;;;36.0;;
21120;SDS011;12519;43.318;21.898;2023-06-24T14:58:34;58.0;;;37.0;;
21120;SDS011;12519;43.318;21.898;2023-06-24T15:03:10;58.0;;;37.0;;
21120;SDS011;12519;43.318;21.898;2023-06-24T15:07:46;52.0;;;37.0;;
21120;SDS011;12519;43.318;21.898;2023-06-24T15:12:23;52.0;;;37.0;;
21120;SDS011;12519;43.318;21.898;2023-06-24T15:16:59;47.0;;;37.0;;
21120;SDS011;12519;43.318;21.898;2023-06-24T15:21:35;47.0;;;37.0;;
21120;SDS011;12519;43.318;21.898;2023-06-24T15:26:12;47.0;;;36.0;;
21120;SDS011;12519;43.318;21.898;2023-06-24T15:30:48;47.0;;;36.0;;
21120;SDS011;12519;43.318;21.898;2023-06-24T15:35:25;47.0;;;36.0;;
21120;SDS011;12519;43.318;21.898;2023-06-24T15:40:02;47.0;;;36.0;;
21120;SDS011;12519;43.318;21.898;2023-06-24T15:44:42;47.0;;;36.0;;
21120;SDS011;12519;43.318;21.898;2023-06-24T15:49:18;48.0;;;37.0;;
21120;SDS011;12519;43.318;21.898;2023-06-24T15:53:55;48.0;;;37.0;;
21120;SDS011;12519;43.318;21.898;2023-06-24T15:58:31;50.0;;;38.0;;
21120;SDS011;12519;43.318;21.898;2023-06-24T16:03:08;50.0;;;38.0;;
21120;SDS011;12519;43.318;21.898;2023-06-24T16:07:45;45.0;;;36.0;;
21120;SDS011;12519;43.318;21.898;2023-06-24T16:12:22;45.0;;;36.0;;
21120;SDS011;12519;43.318;21.898;2023-06-24T16:16:58;40.0;;;34.0;;
21120;SDS011;12519;43.318;21.898;2023-06-24T16:21:35;40.0;;;34.0;;
21120;SDS011;12519;43.318;21.898;2023-06-24T16:26:11;46.0;;;36.0;;
21120;SDS011;12519;43.318;21.898;2023-06-24T16:30:48;46.0;;;36.0;;
21120;SDS011;12519;43.318;21.898;2023-06-24T16:35:24;51.0;;;37.0;;
21120;SDS011;12519;43.318;21.898;2023-06-24T16:40:00;51.0;;;37.0;;
21120;SDS011;12519;43.318;21.898;2023-06-24T16:44:37;51.0;;;37.0;;
21120;SDS011;12519;43.318;21.898;2023-06-24T16:49:13;50.0;;;36.0;;
21120;SDS011;12519;43.318;21.898;2023-06-24T16:53:50;50.0;;;36.0;;
21120;SDS011;12519;43.318;21.898;2023-06-24T16:58:27;49.0;;;34.0;;
21120;SDS011;12519;43.318;21.898;2023-06-24T17:03:03;49.0;;;34.0;;
21120;SDS011;12519;43.318;21.898;2023-06-24T17:07:40;46.0;;;31.0;;
21120;SDS011;12519;43.318;21.898;2023-06-24T17:12:16;46.0;;;31.0;;
21120;SDS011;12519;43.318;21.898;2023-06-24T17:16:53;42.0;;;28.0;;
21120;SDS011;12519;43.318;21.898;2023-06-24T17:21:29;42.0;;;28.0;;
21120;SDS011;12519;43.318;21.898;2023-06-24T17:26:07;41.0;;;29.0;;
21120;SDS011;12519;43.318;21.898;2023-06-24T17:30:44;41.0;;;29.0;;
21120;SDS011;12519;43.318;21.898;2023-06-24T17:35:21;40.0;;;30.0;;
21120;SDS011;12519;43.318;21.898;2023-06-24T17:39:57;40.0;;;30.0;;
21120;SDS011;12519;43.318;21.898;2023-06-24T17:44:34;40.0;;;30.0;;
21120;SDS011;12519;43.318;21.898;2023-06-24T17:49:10;35.0;;;27.0;;
21120;SDS011;12519;43.318;21.898;2023-06-24T17:53:46;35.0;;;27.0;;
21120;SDS011;12519;43.318;21.898;2023-06-24T17:58:22;30.0;;;24.0;;
21120;SDS011;12519;43.318;21.898;2023-06-24T18:02:58;30.0;;;24.0;;
21120;SDS011;12519;43.318;21.898;2023-06-24T18:07:35;34.0;;;26.0;;
21120;SDS011;12519;43.318;21.898;2023-06-24T18:12:11;34.0;;;26.0;;
21120;SDS011;12519;43.318;21.898;2023-06-24T18:16:50;38.0;;;27.0;;
21120;SDS011;12519;43.318;21.898;2023-06-24T18:21:27;38.0;;;27.0;;
21120;SDS011;12519;43.318;21.898;2023-06-24T18:26:04;38.0;;;27.0;;
21120;SDS011;12519;43.318;21.898;2023-06-24T18:30:40;38.0;;;27.0;;
21120;SDS011;12519;43.318;21.898;2023-06-24T18:35:17;37.0;;;27.0;;
21120;SDS011;12519;43.318;21.898;2023-06-24T18:39:53;37.0;;;27.0;;
21120;SDS011;12519;43.318;21.898;2023-06-24T18:44:30;37.0;;;27.0;;
21120;SDS011;12519;43.318;21.898;2023-06-24T18:49:07;34.0;;;26.0;;
21120;SDS011;12519;43.318;21.898;2023-06-24T18:53:43;34.0;;;26.0;;
21120;SDS011;12519;43.318;21.898;2023-06-24T18:58:19;32.0;;;26.0;;
21120;SDS011;12519;43.318;21.898;2023-06-24T19:02:56;32.0;;;26.0;;
21120;SDS011;12519;43.318;21.898;2023-06-24T19:07:32;30.0;;;24.0;;
21120;SDS011;12519;43.318;21.898;2023-06-24T19:12:08;30.0;;;24.0;;
21120;SDS011;12519;43.318;21.898;2023-06-24T19:16:45;29.0;;;23.0;;
21120;SDS011;12519;43.318;21.898;2023-06-24T19:21:22;29.0;;;23.0;;
21120;SDS011;12519;43.318;21.898;2023-06-24T19:25:59;27.0;;;22.0;;
21120;SDS011;12519;43.318;21.898;2023-06-24T19:30:35;27.0;;;22.0;;
21120;SDS011;12519;43.318;21.898;2023-06-24T19:35:12;25.0;;;21.0;;
21120;SDS011;12519;43.318;21.898;2023-06-24T19:39:49;25.0;;;21.0;;
21120;SDS011;12519;43.318;21.898;2023-06-24T19:44:25;25.0;;;21.0;;
21120;SDS011;12519;43.318;21.898;2023-06-24T19:49:02;24.0;;;20.0;;
21120;SDS011;12519;43.318;21.898;2023-06-24T19:53:39;24.0;;;20.0;;
21120;SDS011;12519;43.318;21.898;2023-06-24T19:58:16;22.0;;;20.0;;
21120;SDS011;12519;43.318;21.898;2023-06-24T20:02:52;22.0;;;20.0;;
21120;SDS011;12519;43.318;21.898;2023-06-24T20:07:29;22.0;;;19.0;;
21120;SDS011;12519;43.318;21.898;2023-06-24T20:12:07;22.0;;;19.0;;
21120;SDS011;12519;43.318;21.898;2023-06-24T20:16:46;21.0;;;18.0;;
21120;SDS011;12519;43.318;21.898;2023-06-24T20:21:22;21.0;;;18.0;;
21120;SDS011;12519;43.318;21.898;2023-06-24T20:25:58;22.0;;;17.0;;
21120;SDS011;12519;43.318;21.898;2023-06-24T20:30:35;22.0;;;17.0;;
21120;SDS011;12519;43.318;21.898;2023-06-24T20:35:11;22.0;;;17.0;;
21120;SDS011;12519;43.318;21.898;2023-06-24T20:39:48;22.0;;;16.0;;
21120;SDS011;12519;43.318;21.898;2023-06-24T20:44:24;22.0;;;16.0;;
21120;SDS011;12519;43.318;21.898;2023-06-24T20:49:00;22.0;;;17.0;;
21120;SDS011;12519;43.318;21.898;2023-06-24T20:53:36;22.0;;;17.0;;
21120;SDS011;12519;43.318;21.898;2023-06-24T20:58:13;21.0;;;18.0;;
21120;SDS011;12519;43.318;21.898;2023-06-24T21:02:49;21.0;;;18.0;;
21120;SDS011;12519;43.318;21.898;2023-06-24T21:07:25;22.0;;;18.0;;
21120;SDS011;12519;43.318;21.898;2023-06-24T21:12:03;22.0;;;18.0;;
21120;SDS011;12519;43.318;21.898;2023-06-24T21:16:42;22.0;;;17.0;;
21120;SDS011;12519;43.318;21.898;2023-06-24T21:21:19;22.0;;;17.0;;
21120;SDS011;12519;43.318;21.898;2023-06-24T21:25:56;22.0;;;18.0;;
21120;SDS011;12519;43.318;21.898;2023-06-24T21:30:33;22.0;;;18.0;;
21120;SDS011;12519;43.318;21.898;2023-06-24T21:35:10;22.0;;;18.0;;
21120;SDS011;12519;43.318;21.898;2023-06-24T21:39:47;22.0;;;19.0;;
21120;SDS011;12519;43.318;21.898;2023-06-24T21:44:23;22.0;;;19.0;;
21120;SDS011;12519;43.318;21.898;2023-06-24T21:48:59;22.0;;;18.0;;
21120;SDS011;12519;43.318;21.898;2023-06-24T21:53:36;22.0;;;18.0;;
21120;SDS011;12519;43.318;21.898;2023-06-24T21:58:12;23.0;;;18.0;;
21120;SDS011;12519;43.318;21.898;2023-06-24T22:02:49;23.0;;;18.0;;
21120;SDS011;12519;43.318;21.898;2023-06-24T22:07:25;22.0;;;18.0;;
21120;SDS011;12519;43.318;21.898;2023-06-24T22:12:01;22.0;;;18.0;;
21120;SDS011;12519;43.318;21.898;2023-06-24T22:16:38;21.0;;;19.0;;
21120;SDS011;12519;43.318;21.898;2023-06-24T22:21:15;21.0;;;19.0;;
21120;SDS011;12519;43.318;21.898;2023-06-24T22:25:51;21.0;;;19.0;;
21120;SDS011;12519;43.318;21.898;2023-06-24T22:30:27;21.0;;;19.0;;
21120;SDS011;12519;43.318;21.898;2023-06-24T22:35:04;21.0;;;19.0;;
21120;SDS011;12519;43.318;21.898;2023-06-24T22:48:54;18.0;;;17.0;;
21120;SDS011;12519;43.318;21.898;2023-06-24T22:53:30;18.0;;;17.0;;
21120;SDS011;12519;43.318;21.898;2023-06-24T22:58:06;18.0;;;17.0;;
21120;SDS011;12519;43.318;21.898;2023-06-24T23:02:43;18.0;;;17.0;;
21120;SDS011;12519;43.318;21.898;2023-06-24T23:07:21;20.0;;;18.0;;
21120;SDS011;12519;43.318;21.898;2023-06-24T23:12:02;20.0;;;18.0;;
21120;SDS011;12519;43.318;21.898;2023-06-24T23:16:41;23.0;;;19.0;;
21120;SDS011;12519;43.318;21.898;2023-06-24T23:21:19;23.0;;;19.0;;
21120;SDS011;12519;43.318;21.898;2023-06-24T23:25:57;22.0;;;19.0;;
21120;SDS011;12519;43.318;21.898;2023-06-24T23:30:34;22.0;;;19.0;;
21120;SDS011;12519;43.318;21.898;2023-06-24T23:35:13;22.0;;;19.0;;
21120;SDS011;12519;43.318;21.898;2023-06-24T23:39:52;20.0;;;19.0;;
21120;SDS011;12519;43.318;21.898;2023-06-24T23:44:30;20.0;;;19.0;;
21120;SDS011;12519;43.318;21.898;2023-06-24T23:49:08;24.0;;;20.0;;
21120;SDS011;12519;43.318;21.898;2023-06-24T23:53:45;24.0;;;20.0;;
21120;SDS011;12519;43.318;21.898;2023-06-24T23:58:22;28.0;;;22.0;;
